Terminal Aerodrome Forecast
Issued by NWS Atlanta, GA

Home | Current Version | Previous Version | Text Only | Print | Product List | Glossary On
Versions: 1 2 3 4 5 6 7 8 9 10 11 12 13 14 15 16 17 18 19 20 21 22 23 24 25 26 27 28 29 30 31 32 33 34 35 36 37 38 39 40
000
FTUS42 KFFC 271134
TAFATL
TAF
KATL 271134Z 2712/2818 VRB03KT P6SM BKN009
     FM271500 17008KT P6SM VCSH BKN015
     FM271800 17008KT P6SM VCSH BKN025
     FM272000 24007KT 6SM -SHRA BR BKN035 PROB30 2721/2724 3SM -TSRA
      BKN015CB
     FM280000 20005KT P6SM BKN040
     FM280500 VRB03KT P6SM SCT020 BKN080
     FM281300 16006KT P6SM BKN030=

USA.gov is the U.S. government's official web portal to all federal, state and local government web resources and services.